TimeEDT,TemperatureF,Dew PointF,Humidity,Sea Level PressureIn,VisibilityMPH,Wind Direction,Wind SpeedMPH,Gust SpeedMPH,PrecipitationIn,Events,Conditions,WindDirDegrees,DateUTC
12:54 AM,42.1,33.1,70,30.12,10.0,West,12.7,17.3,N/A,,Mostly Cloudy,280,2012-10-11 04:54:00
1:54 AM,41.0,33.1,73,30.13,10.0,WSW,4.6,-,N/A,,Overcast,250,2012-10-11 05:54:00
2:54 AM,41.0,30.9,67,30.14,10.0,WNW,5.8,-,N/A,,Overcast,290,2012-10-11 06:54:00
3:54 AM,39.9,28.9,65,30.14,10.0,WNW,10.4,-,N/A,,Mostly Cloudy,290,2012-10-11 07:54:00
4:54 AM,39.9,28.9,65,30.17,10.0,West,6.9,-,N/A,,Mostly Cloudy,270,2012-10-11 08:54:00
5:54 AM,37.9,28.0,68,30.21,10.0,West,6.9,-,N/A,,Partly Cloudy,280,2012-10-11 09:54:00
6:54 AM,36.0,28.0,73,30.23,10.0,SW,5.8,-,N/A,,Clear,230,2012-10-11 10:54:00
7:54 AM,35.1,28.9,78,30.27,10.0,SW,9.2,-,N/A,,Clear,220,2012-10-11 11:54:00
8:54 AM,37.0,30.0,76,30.28,10.0,SW,9.2,-,N/A,,Clear,220,2012-10-11 12:54:00
9:54 AM,42.1,30.9,65,30.28,10.0,SSW,8.1,-,N/A,,Clear,200,2012-10-11 13:54:00
10:54 AM,46.0,28.9,51,30.27,10.0,WSW,11.5,17.3,N/A,,Clear,240,2012-10-11 14:54:00
11:54 AM,48.0,28.9,48,30.27,10.0,WSW,13.8,19.6,N/A,,Clear,250,2012-10-11 15:54:00
12:54 PM,50.0,28.9,44,30.25,10.0,WSW,10.4,-,N/A,,Clear,240,2012-10-11 16:54:00
1:54 PM,53.1,28.9,40,30.20,10.0,SW,10.4,-,N/A,,Clear,230,2012-10-11 17:54:00
2:54 PM,54.0,28.0,37,30.18,10.0,West,9.2,17.3,N/A,,Clear,260,2012-10-11 18:54:00
3:54 PM,55.0,30.0,38,30.15,10.0,SW,6.9,-,N/A,,Clear,220,2012-10-11 19:54:00
4:54 PM,54.0,28.9,38,30.14,10.0,SSW,10.4,-,N/A,,Clear,210,2012-10-11 20:54:00
6:54 PM,48.9,30.0,48,30.16,10.0,SSW,6.9,-,N/A,,Clear,200,2012-10-11 22:54:00
7:54 PM,46.9,30.0,52,30.15,10.0,SW,5.8,-,N/A,,Clear,230,2012-10-11 23:54:00
9:54 PM,41.0,32.0,70,30.18,10.0,SW,3.5,-,N/A,,Clear,220,2012-10-12 01:54:00
10:54 PM,41.0,30.9,67,30.18,10.0,West,3.5,-,N/A,,Clear,260,2012-10-12 02:54:00
11:54 PM,37.9,33.1,83,30.17,10.0,SW,4.6,-,N/A,,Clear,230,2012-10-12 03:54:00